Time;durP1;ratioP1;P1;durP2;ratioP2;P2;SDS_P1;SDS_P2;PMS_P1;PMS_P2;Temp;Humidity;BMP_temperature;BMP_pressure;BME280_temperature;BME280_humidity;BME280_pressure;Samples;Min_cycle;Max_cycle;Signal;HPM_P1;HPM_P2
2022/01/31 00:01:15;;;;;;;19.93;4.40;;;;;;;0.15;100.00;96620.47;5010790;28;20482;-74
2022/01/31 00:03:43;;;;;;;11.57;4.70;;;;;;;0.24;100.00;96647.53;5013899;28;20920;-74
2022/01/31 00:06:09;;;;;;;24.97;5.30;;;;;;;0.08;100.00;96632.88;5014024;28;21162;-73
2022/01/31 00:08:36;;;;;;;14.60;4.57;;;;;;;-0.10;100.00;96620.31;4997467;28;20533;-73
2022/01/31 00:11:03;;;;;;;12.10;5.63;;;;;;;0.10;100.00;96622.25;5014915;28;20813;-73
2022/01/31 00:13:40;;;;;;;20.30;5.43;;;;;;;-0.01;100.00;96598.78;5014593;28;20490;-73
2022/01/31 00:16:09;;;;;;;14.07;4.80;;;;;;;0.02;100.00;96623.50;5013304;28;20466;-73
2022/01/31 00:18:36;;;;;;;12.00;4.83;;;;;;;0.14;100.00;96607.72;5014840;28;20510;-73
2022/01/31 00:21:02;;;;;;;15.47;5.47;;;;;;;-0.12;100.00;96566.00;5013287;28;20533;-74
2022/01/31 00:23:29;;;;;;;13.33;5.60;;;;;;;0.23;100.00;96591.38;5013010;28;21003;-74
2022/01/31 00:25:55;;;;;;;9.53;4.40;;;;;;;0.16;100.00;96584.84;5013298;28;20546;-74
2022/01/31 00:28:22;;;;;;;13.17;6.03;;;;;;;-0.12;100.00;96571.19;5013324;28;20482;-73
2022/01/31 00:30:49;;;;;;;18.37;6.47;;;;;;;-0.24;100.00;96533.47;5014217;28;20532;-74
2022/01/31 00:33:15;;;;;;;14.90;4.50;;;;;;;-0.07;100.00;96554.84;5013355;28;20454;-75
2022/01/31 00:35:42;;;;;;;8.80;3.60;;;;;;;-0.17;100.00;96580.75;5014343;28;20431;-75
2022/01/31 00:38:09;;;;;;;9.17;5.67;;;;;;;-0.31;100.00;96570.03;4997536;28;20443;-73
2022/01/31 00:40:41;;;;;;;8.70;3.77;;;;;;;-0.53;100.00;96538.22;5013949;28;20854;-73
2022/01/31 00:43:14;;;;;;;8.07;4.80;;;;;;;-0.43;100.00;96587.59;5012845;28;20423;-74
2022/01/31 00:45:58;;;;;;;13.10;5.00;;;;;;;-0.67;100.00;96543.03;5012768;28;20439;-73
2022/01/31 00:48:27;;;;;;;13.70;4.60;;;;;;;-0.88;100.00;96510.97;5012978;28;21026;-72
2022/01/31 00:50:53;;;;;;;12.50;5.50;;;;;;;-0.56;100.00;96533.50;5013051;28;20470;-73
2022/01/31 00:53:20;;;;;;;16.67;5.10;;;;;;;-0.63;100.00;96500.00;4996460;28;20984;-73
2022/01/31 00:55:47;;;;;;;15.73;4.53;;;;;;;-0.67;100.00;96515.28;5012814;28;20435;-73
2022/01/31 00:58:14;;;;;;;10.50;4.87;;;;;;;-0.54;100.00;96523.66;5012882;28;20439;-74
2022/01/31 01:00:40;;;;;;;11.23;4.20;;;;;;;-0.69;100.00;96519.13;4997449;28;20512;-74
2022/01/31 01:03:07;;;;;;;10.63;4.60;;;;;;;-0.45;100.00;96542.94;5013397;28;20451;-74
2022/01/31 01:05:36;;;;;;;15.80;6.50;;;;;;;-0.47;100.00;96553.56;5012656;28;20944;-74
2022/01/31 01:08:03;;;;;;;13.20;4.97;;;;;;;-0.85;100.00;96507.88;5012840;28;20858;-73
2022/01/31 01:10:31;;;;;;;22.53;7.37;;;;;;;-0.81;100.00;96510.75;4996341;28;20443;-73
2022/01/31 01:12:58;;;;;;;15.13;6.10;;;;;;;-0.57;100.00;96496.38;5012169;28;20481;-73
2022/01/31 01:15:25;;;;;;;9.93;4.70;;;;;;;-0.07;100.00;96503.66;5012278;28;20442;-73
2022/01/31 01:17:52;;;;;;;20.40;5.40;;;;;;;0.11;100.00;96499.81;5012190;28;20455;-73
2022/01/31 01:20:18;;;;;;;12.20;5.50;;;;;;;0.03;100.00;96470.97;5012258;28;20934;-74
2022/01/31 01:22:45;;;;;;;12.53;4.80;;;;;;;-0.02;100.00;96461.31;5012295;28;20427;-74
2022/01/31 01:25:14;;;;;;;9.07;5.03;;;;;;;-0.04;100.00;96455.59;4995950;28;21042;-74
2022/01/31 01:27:42;;;;;;;15.87;4.70;;;;;;;-0.03;100.00;96463.13;5011849;28;20494;-74
2022/01/31 01:30:11;;;;;;;9.27;4.83;;;;;;;-0.23;100.00;96413.72;5012144;28;20517;-74
2022/01/31 01:32:48;;;;;;;19.73;5.83;;;;;;;-0.38;100.00;96385.09;5013337;28;20952;-74
2022/01/31 01:35:16;;;;;;;16.17;5.47;;;;;;;-0.26;100.00;96401.22;5013119;28;20451;-74
2022/01/31 01:37:43;;;;;;;15.30;5.90;;;;;;;-0.32;100.00;96413.41;4995884;28;20815;-74
2022/01/31 01:40:10;;;;;;;11.10;4.73;;;;;;;-0.54;100.00;96409.41;4995394;28;20443;-73
2022/01/31 01:42:37;;;;;;;15.43;4.87;;;;;;;-0.69;100.00;96408.31;5011462;28;20447;-73
2022/01/31 01:45:05;;;;;;;21.80;7.80;;;;;;;-0.54;100.00;96417.97;5011350;28;20549;-73
2022/01/31 01:47:37;;;;;;;14.53;4.30;;;;;;;-0.55;100.00;96406.03;4996041;28;20518;-74
2022/01/31 01:50:05;;;;;;;14.67;5.73;;;;;;;-0.60;100.00;96396.41;5011550;28;20960;-74
2022/01/31 01:52:32;;;;;;;23.57;5.60;;;;;;;-0.50;100.00;96397.50;5011446;28;20443;-74
2022/01/31 01:54:58;;;;;;;9.50;4.53;;;;;;;-0.51;100.00;96388.16;5011669;28;20455;-74
2022/01/31 01:57:27;;;;;;;17.93;6.30;;;;;;;-0.27;100.00;96396.25;5012583;28;20463;-73
2022/01/31 01:59:56;;;;;;;7.70;4.57;;;;;;;-0.46;100.00;96346.63;5011055;28;20901;-73
2022/01/31 02:02:42;;;;;;;16.67;5.07;;;;;;;-0.31;100.00;96363.03;5011312;28;21031;-73
2022/01/31 02:05:13;;;;;;;11.60;5.17;;;;;;;-0.29;100.00;96341.97;4995276;28;20514;-74
2022/01/31 02:07:40;;;;;;;9.70;4.97;;;;;;;-0.41;100.00;96297.28;5011224;28;20482;-73
2022/01/31 02:10:10;;;;;;;24.73;5.97;;;;;;;-0.15;100.00;96296.28;5011133;28;20493;-73
2022/01/31 02:12:55;;;;;;;15.40;4.53;;;;;;;-0.32;100.00;96236.00;4997572;28;20476;-73
2022/01/31 02:15:50;;;;;;;24.67;5.80;;;;;;;0.05;100.00;96237.59;5012298;28;20458;-73
2022/01/31 02:18:48;;;;;;;11.83;4.70;;;;;;;0.31;100.00;96251.34;5012653;28;20815;-73
2022/01/31 02:21:33;;;;;;;9.13;4.30;;;;;;;0.24;100.00;96254.19;5011352;28;20445;-73
2022/01/31 02:24:17;;;;;;;15.80;6.43;;;;;;;-0.16;100.00;96195.22;5010509;28;20588;-74
2022/01/31 02:26:55;;;;;;;11.33;4.00;;;;;;;0.01;100.00;96211.34;5012638;28;20466;-74
2022/01/31 02:29:29;;;;;;;12.60;5.30;;;;;;;-0.12;100.00;96204.84;5010933;28;20502;-74
2022/01/31 02:31:55;;;;;;;12.73;5.63;;;;;;;-0.24;100.00;96167.19;5011202;28;20508;-74
2022/01/31 02:34:23;;;;;;;17.10;7.00;;;;;;;-0.01;100.00;96175.19;5011875;28;20470;-74
2022/01/31 02:36:49;;;;;;;9.87;4.20;;;;;;;0.10;100.00;96157.00;4994559;28;20447;-74
2022/01/31 02:39:16;;;;;;;13.23;5.63;;;;;;;-0.14;100.00;96112.63;5011524;28;20443;-74
2022/01/31 02:41:45;;;;;;;14.33;4.70;;;;;;;0.21;100.00;96161.91;5010677;28;20439;-74
2022/01/31 02:44:16;;;;;;;15.43;6.20;;;;;;;0.12;100.00;96167.91;5011982;28;20447;-74
2022/01/31 02:47:09;;;;;;;23.77;4.77;;;;;;;0.09;100.00;96150.25;4997396;28;20475;-74
2022/01/31 02:49:45;;;;;;;16.00;4.87;;;;;;;0.24;100.00;96171.00;4994589;28;20562;-74
2022/01/31 02:52:14;;;;;;;11.53;3.83;;;;;;;0.24;100.00;96150.22;5010573;28;20435;-74
2022/01/31 02:54:41;;;;;;;19.63;4.63;;;;;;;-0.06;100.00;96092.06;5010518;28;20469;-74
2022/01/31 02:57:08;;;;;;;9.17;4.27;;;;;;;-0.01;100.00;96088.69;5010177;28;20435;-73
2022/01/31 02:59:35;;;;;;;10.37;4.23;;;;;;;0.07;100.00;96095.16;5010221;28;20442;-73
2022/01/31 03:02:03;;;;;;;18.00;4.23;;;;;;;0.17;100.00;96089.94;5010176;28;20474;-73
2022/01/31 03:04:30;;;;;;;8.87;3.93;;;;;;;0.25;100.00;96081.56;5010152;28;20475;-73
2022/01/31 03:06:57;;;;;;;11.60;4.73;;;;;;;0.11;100.00;96063.19;5010115;28;20471;-73
2022/01/31 03:09:25;;;;;;;10.40;3.80;;;;;;;0.04;100.00;96059.31;5010264;28;20489;-73
2022/01/31 03:11:53;;;;;;;11.13;4.03;;;;;;;0.17;100.00;96077.72;4994303;28;20443;-73
2022/01/31 03:14:25;;;;;;;14.53;4.60;;;;;;;0.13;100.00;96057.72;5010126;28;20899;-73
2022/01/31 03:16:55;;;;;;;8.97;3.50;;;;;;;-0.08;100.00;96023.25;5010134;28;20445;-73
2022/01/31 03:19:37;;;;;;;19.10;4.73;;;;;;;-0.04;100.00;96038.03;5010172;28;20439;-73
2022/01/31 03:22:06;;;;;;;13.10;5.07;;;;;;;0.10;100.00;96045.25;5010133;28;20435;-73
2022/01/31 03:24:34;;;;;;;10.37;3.80;;;;;;;-0.08;100.00;96012.84;5009898;28;20463;-73
2022/01/31 03:27:01;;;;;;;14.80;4.30;;;;;;;0.03;100.00;96027.38;4994840;28;20485;-73
2022/01/31 03:29:29;;;;;;;8.93;3.43;;;;;;;-0.14;100.00;95999.09;5011402;28;20499;-73
2022/01/31 03:31:55;;;;;;;10.30;4.33;;;;;;;-0.33;100.00;95957.34;5010905;28;20449;-73
2022/01/31 03:34:22;;;;;;;12.10;4.60;;;;;;;-0.05;100.00;96002.69;4994378;28;20844;-73
2022/01/31 03:36:49;;;;;;;7.37;4.00;;;;;;;-0.06;100.00;95995.94;5012074;28;20435;-73
2022/01/31 03:39:19;;;;;;;10.83;4.60;;;;;;;0.09;100.00;96030.72;5014009;28;20450;-74
2022/01/31 03:41:46;;;;;;;9.73;3.33;;;;;;;-0.06;100.00;96003.75;5014046;28;20526;-74
2022/01/31 03:44:13;;;;;;;6.93;3.00;;;;;;;0.07;100.00;96023.19;5013846;28;20930;-73
2022/01/31 03:46:40;;;;;;;11.47;5.17;;;;;;;0.03;100.00;96022.16;5013684;28;21101;-73
2022/01/31 03:49:06;;;;;;;14.90;4.40;;;;;;;0.18;100.00;96042.88;5013660;28;20446;-73
2022/01/31 03:51:38;;;;;;;21.13;6.20;;;;;;;0.18;100.00;96042.13;5013820;28;20431;-73
2022/01/31 03:54:05;;;;;;;14.73;4.33;;;;;;;-0.01;100.00;96006.31;4997334;28;20490;-73
2022/01/31 03:56:32;;;;;;;13.20;4.70;;;;;;;0.10;100.00;96021.88;4997276;28;20581;-73
2022/01/31 03:59:18;;;;;;;6.90;3.47;;;;;;;0.21;100.00;96008.56;5013462;28;20489;-73
2022/01/31 04:01:46;;;;;;;9.90;4.27;;;;;;;0.20;100.00;96001.81;5013769;28;20593;-73
2022/01/31 04:04:13;;;;;;;10.00;3.57;;;;;;;0.16;100.00;95982.59;5015338;28;20847;-73
2022/01/31 04:06:40;;;;;;;9.57;4.10;;;;;;;0.05;100.00;95943.94;5014843;28;20472;-74
2022/01/31 04:09:08;;;;;;;11.50;5.73;;;;;;;0.23;100.00;95962.28;5015752;28;20772;-74
2022/01/31 04:11:34;;;;;;;10.80;5.10;;;;;;;0.26;100.00;95953.94;5015948;28;20776;-74
2022/01/31 04:14:01;;;;;;;13.37;6.07;;;;;;;0.17;100.00;95957.38;5014342;28;20446;-74
2022/01/31 04:16:28;;;;;;;11.07;4.83;;;;;;;0.22;100.00;95954.75;5014995;28;20423;-74
2022/01/31 04:18:54;;;;;;;23.93;6.27;;;;;;;0.06;100.00;95930.69;5014385;28;20966;-74
2022/01/31 04:21:21;;;;;;;17.70;6.67;;;;;;;0.10;100.00;95929.09;5015115;28;20931;-73
2022/01/31 04:23:50;;;;;;;8.43;4.27;;;;;;;0.06;100.00;95930.69;5014639;28;20785;-73
2022/01/31 04:26:18;;;;;;;15.47;4.83;;;;;;;0.19;100.00;95937.09;5013638;28;20423;-73
2022/01/31 04:28:48;;;;;;;16.13;4.90;;;;;;;0.14;100.00;95932.72;5013310;28;20908;-73
2022/01/31 04:33:49;;;;;;;13.70;6.57;;;;;;;0.26;100.00;95932.34;5014299;28;20490;-73
2022/01/31 04:36:16;;;;;;;10.93;3.90;;;;;;;0.32;100.00;95913.09;5014458;28;20423;-73
2022/01/31 04:38:47;;;;;;;13.20;5.17;;;;;;;0.27;100.00;95903.53;5014333;28;20438;-73
2022/01/31 04:41:15;;;;;;;15.17;4.10;;;;;;;0.24;100.00;95900.66;5013280;28;20408;-73
2022/01/31 04:43:44;;;;;;;18.07;6.03;;;;;;;0.19;100.00;95892.91;5012940;28;20439;-73
2022/01/31 04:46:11;;;;;;;17.73;4.77;;;;;;;-0.15;100.00;95844.28;5012986;28;20432;-73
2022/01/31 04:48:38;;;;;;;10.13;5.47;;;;;;;-0.05;100.00;95849.41;5012282;28;20559;-73
2022/01/31 04:51:04;;;;;;;15.13;6.40;;;;;;;0.10;100.00;95845.16;5012882;28;20439;-73
2022/01/31 04:53:31;;;;;;;11.60;6.10;;;;;;;0.21;100.00;95851.81;5013957;28;20447;-73
2022/01/31 04:55:57;;;;;;;8.13;4.50;;;;;;;-0.03;100.00;95821.31;5012923;28;20427;-73
2022/01/31 04:58:25;;;;;;;19.23;4.87;;;;;;;0.03;100.00;95827.28;5012711;28;20781;-73
2022/01/31 05:00:52;;;;;;;7.83;4.77;;;;;;;0.22;100.00;95827.38;5013943;28;20439;-73
2022/01/31 05:03:20;;;;;;;7.50;4.60;;;;;;;0.15;100.00;95808.75;5013997;28;20454;-73
2022/01/31 05:05:47;;;;;;;9.07;4.07;;;;;;;0.23;100.00;95819.31;5014113;28;20442;-73
2022/01/31 05:08:14;;;;;;;4.77;3.53;;;;;;;0.29;100.00;95815.63;5014002;28;20466;-74
2022/01/31 05:10:49;;;;;;;6.90;4.20;;;;;;;0.05;100.00;95762.03;5012695;28;20425;-74
2022/01/31 05:13:17;;;;;;;7.13;3.57;;;;;;;0.18;100.00;95774.41;5014314;28;20502;-74
2022/01/31 05:15:45;;;;;;;10.33;4.60;;;;;;;0.03;100.00;95748.56;5013721;28;20443;-74
2022/01/31 05:18:12;;;;;;;9.60;4.83;;;;;;;0.33;100.00;95786.50;5012513;28;20438;-74
2022/01/31 05:20:39;;;;;;;6.47;3.90;;;;;;;0.20;100.00;95775.69;5012308;28;20431;-74
2022/01/31 05:23:07;;;;;;;7.13;4.70;;;;;;;0.22;100.00;95767.59;5012244;28;20416;-74
2022/01/31 05:25:34;;;;;;;13.07;4.37;;;;;;;0.29;100.00;95762.88;5013386;28;20427;-73
2022/01/31 05:28:02;;;;;;;7.40;3.43;;;;;;;0.29;100.00;95770.69;5012300;28;20466;-73
2022/01/31 05:30:29;;;;;;;4.73;3.87;;;;;;;0.14;100.00;95734.44;5013537;28;20430;-73
2022/01/31 05:32:56;;;;;;;11.03;5.10;;;;;;;0.32;100.00;95746.72;5013533;28;20434;-74
2022/01/31 05:35:22;;;;;;;15.20;8.60;;;;;;;-0.14;100.00;95669.19;5013761;28;20987;-74
2022/01/31 05:37:49;;;;;;;7.87;5.37;;;;;;;0.01;100.00;95685.72;5013745;28;20422;-73
2022/01/31 05:40:15;;;;;;;9.40;4.97;;;;;;;0.23;100.00;95691.19;5011959;28;20419;-73
2022/01/31 05:42:42;;;;;;;6.07;4.90;;;;;;;0.18;100.00;95689.41;5012987;28;20939;-73
2022/01/31 05:45:09;;;;;;;9.20;6.27;;;;;;;0.14;100.00;95685.06;5013112;28;20456;-73
2022/01/31 05:47:36;;;;;;;12.30;4.20;;;;;;;0.18;100.00;95684.22;5020001;28;20463;-74
2022/01/31 05:50:04;;;;;;;13.53;4.03;;;;;;;0.24;100.00;95675.31;5013198;28;20434;-74
2022/01/31 05:52:32;;;;;;;8.20;6.23;;;;;;;0.42;100.00;95697.22;5014988;28;20656;-74
2022/01/31 05:54:59;;;;;;;6.00;3.90;;;;;;;0.43;100.00;95696.19;5024780;28;20455;-73
2022/01/31 05:57:26;;;;;;;8.13;4.53;;;;;;;0.43;100.00;95675.38;5012386;28;20509;-74
2022/01/31 05:59:53;;;;;;;5.67;3.60;;;;;;;0.25;100.00;95634.50;5013596;28;20982;-74
2022/01/31 06:02:20;;;;;;;7.83;4.00;;;;;;;0.37;100.00;95654.91;5012598;28;20490;-74
2022/01/31 06:04:48;;;;;;;6.13;4.13;;;;;;;0.31;100.00;95636.00;5011460;28;20554;-74
2022/01/31 06:07:15;;;;;;;7.83;3.20;;;;;;;0.29;100.00;95625.88;4999917;28;20463;-73
2022/01/31 06:09:42;;;;;;;10.87;3.93;;;;;;;0.28;100.00;95615.78;5011521;28;20447;-74
2022/01/31 06:12:11;;;;;;;11.17;4.57;;;;;;;-0.03;100.00;95556.34;4995657;28;20521;-74
2022/01/31 06:14:39;;;;;;;6.63;3.67;;;;;;;0.27;100.00;95607.19;5012589;28;20498;-74
2022/01/31 06:17:05;;;;;;;12.17;3.83;;;;;;;0.44;100.00;95629.34;4994796;28;20446;-74
2022/01/31 06:19:32;;;;;;;12.40;4.73;;;;;;;0.23;100.00;95585.38;5011570;28;20446;-74
2022/01/31 06:21:59;;;;;;;11.87;4.80;;;;;;;0.51;100.00;95622.75;5012885;28;20431;-73
2022/01/31 06:24:26;;;;;;;9.73;4.70;;;;;;;0.29;100.00;95573.13;5011073;28;21003;-73
2022/01/31 06:26:53;;;;;;;10.13;4.20;;;;;;;0.52;100.00;95600.13;4994891;28;20538;-74
2022/01/31 06:29:23;;;;;;;6.20;4.63;;;;;;;0.52;100.00;95582.69;4995198;28;20543;-74
2022/01/31 06:31:56;;;;;;;8.10;4.00;;;;;;;0.32;100.00;95549.16;5010839;28;20446;-73
2022/01/31 06:34:22;;;;;;;14.53;5.80;;;;;;;0.29;100.00;95554.94;5011654;28;20532;-73
2022/01/31 06:36:49;;;;;;;7.00;3.57;;;;;;;0.46;100.00;95573.41;5012090;28;20863;-72
2022/01/31 06:39:16;;;;;;;5.77;4.50;;;;;;;0.35;100.00;95537.44;5010719;28;20458;-74
2022/01/31 06:41:43;;;;;;;5.60;4.07;;;;;;;0.29;100.00;95536.75;5012159;28;20518;-74
2022/01/31 06:44:09;;;;;;;7.90;3.97;;;;;;;0.48;100.00;95563.50;5012116;28;20479;-73
2022/01/31 06:46:36;;;;;;;10.70;5.43;;;;;;;0.41;100.00;95541.53;5010447;28;20447;-73
2022/01/31 06:49:03;;;;;;;7.33;4.13;;;;;;;0.36;100.00;95521.56;5010588;28;20546;-72
2022/01/31 06:51:30;;;;;;;5.03;3.93;;;;;;;0.51;100.00;95536.94;5010673;28;20538;-72
2022/01/31 06:54:00;;;;;;;10.53;5.10;;;;;;;0.46;100.00;95529.22;5010367;28;20478;-74
2022/01/31 06:56:30;;;;;;;6.00;4.67;;;;;;;0.24;100.00;95503.00;5010599;28;20446;-73
2022/01/31 06:58:58;;;;;;;10.00;3.93;;;;;;;0.30;100.00;95517.50;5010354;28;20519;-73
2022/01/31 07:01:25;;;;;;;6.30;5.17;;;;;;;0.15;100.00;95508.06;4995107;28;20509;-75
2022/01/31 07:03:54;;;;;;;8.73;3.93;;;;;;;-0.04;100.00;95507.25;5011135;28;20528;-75
2022/01/31 07:06:23;;;;;;;8.50;4.50;;;;;;;0.15;100.00;95528.84;5011534;28;20832;-75
2022/01/31 07:08:51;;;;;;;12.50;4.53;;;;;;;0.14;100.00;95524.72;5010718;28;20469;-74
2022/01/31 07:11:26;;;;;;;10.53;6.80;;;;;;;0.05;100.00;95497.03;5010419;28;20439;-74
2022/01/31 07:14:06;;;;;;;6.90;4.40;;;;;;;0.04;100.00;95490.28;5010627;28;20504;-75
2022/01/31 07:16:34;;;;;;;7.90;5.20;;;;;;;0.08;100.00;95491.25;5010550;28;20485;-76
2022/01/31 07:19:07;;;;;;;9.50;4.53;;;;;;;0.02;100.00;95476.81;5011145;28;20419;-75
2022/01/31 07:21:39;;;;;;;12.60;4.90;;;;;;;0.02;100.00;95489.78;5010526;28;20439;-75
2022/01/31 07:24:20;;;;;;;10.13;4.63;;;;;;;-0.28;100.00;95444.94;5010711;28;20490;-75
2022/01/31 07:26:49;;;;;;;8.30;4.53;;;;;;;-0.01;100.00;95472.91;5010908;28;20435;-75
2022/01/31 07:29:17;;;;;;;11.93;4.30;;;;;;;-0.01;100.00;95465.91;5010956;28;20470;-75
2022/01/31 07:31:45;;;;;;;8.23;4.30;;;;;;;-0.04;100.00;95463.09;5010051;28;20530;-74
2022/01/31 07:34:14;;;;;;;17.27;6.27;;;;;;;-0.08;100.00;95451.72;5009794;28;20462;-73
2022/01/31 07:36:42;;;;;;;15.70;4.97;;;;;;;-0.21;100.00;95429.81;5010145;28;20443;-75
2022/01/31 07:39:09;;;;;;;5.33;4.87;;;;;;;-0.20;100.00;95425.38;5010595;28;20521;-73
2022/01/31 07:41:39;;;;;;;10.40;5.00;;;;;;;-0.03;100.00;95446.44;5011766;28;20466;-75
2022/01/31 07:44:06;;;;;;;7.80;5.20;;;;;;;-0.37;100.00;95381.72;5010177;28;20455;-75
2022/01/31 07:46:33;;;;;;;7.77;4.80;;;;;;;-0.30;100.00;95389.94;5012418;28;20530;-74
2022/01/31 07:49:00;;;;;;;9.13;4.53;;;;;;;-0.26;100.00;95414.31;5009930;28;20481;-73
2022/01/31 07:51:27;;;;;;;10.10;5.93;;;;;;;-0.40;100.00;95377.06;5011497;28;20562;-76
2022/01/31 07:53:53;;;;;;;10.17;5.50;;;;;;;-0.16;100.00;95421.16;5010186;28;20553;-75
2022/01/31 07:56:20;;;;;;;7.50;5.17;;;;;;;-0.12;100.00;95414.38;5010027;28;20530;-74
2022/01/31 07:58:47;;;;;;;10.47;5.63;;;;;;;-0.13;100.00;95412.84;5010015;28;20956;-74
2022/01/31 08:01:14;;;;;;;6.53;5.30;;;;;;;-0.28;100.00;95387.03;5010145;28;20493;-73
2022/01/31 08:03:41;;;;;;;6.60;5.07;;;;;;;-0.23;100.00;95394.78;5011096;28;20466;-76
2022/01/31 08:06:08;;;;;;;6.50;5.33;;;;;;;-0.21;100.00;95392.69;5010413;28;20443;-75
2022/01/31 08:08:35;;;;;;;7.40;4.90;;;;;;;-0.16;100.00;95385.56;5011544;28;20570;-76
2022/01/31 08:11:03;;;;;;;5.40;4.83;;;;;;;-0.03;100.00;95395.25;5011677;28;20874;-76
2022/01/31 08:13:33;;;;;;;10.10;4.83;;;;;;;-0.09;100.00;95386.00;5009995;28;20867;-76
2022/01/31 08:18:38;;;;;;;5.23;4.37;;;;;;;-0.05;100.00;95384.38;5009976;28;20430;-75
2022/01/31 08:21:08;;;;;;;7.50;5.30;;;;;;;-0.18;100.00;95369.50;5010134;28;20443;-75
2022/01/31 08:23:35;;;;;;;7.10;4.10;;;;;;;-0.35;100.00;95319.91;5011342;28;21014;-74
2022/01/31 08:26:08;;;;;;;7.80;4.53;;;;;;;-0.05;100.00;95374.00;5013733;28;20522;-76
2022/01/31 08:28:40;;;;;;;4.40;3.63;;;;;;;-0.03;100.00;95371.13;4997366;28;20517;-76
2022/01/31 08:31:15;;;;;;;4.27;3.93;;;;;;;-0.05;100.00;95365.44;5014655;28;20423;-74
2022/01/31 08:34:04;;;;;;;6.97;4.10;;;;;;;-0.09;100.00;95361.88;5013538;28;20573;-76
2022/01/31 08:36:34;;;;;;;5.40;3.90;;;;;;;-0.09;100.00;95357.44;5012942;28;20465;-74
2022/01/31 08:39:14;;;;;;;7.13;5.60;;;;;;;-0.26;100.00;95318.22;5013116;28;20780;-74
2022/01/31 08:41:43;;;;;;;3.80;3.27;;;;;;;-0.19;100.00;95336.81;4997219;28;20526;-75
2022/01/31 08:44:12;;;;;;;3.73;3.43;;;;;;;-0.09;100.00;95343.69;5012823;28;20529;-74
2022/01/31 08:46:39;;;;;;;3.40;3.10;;;;;;;-0.08;100.00;95338.19;5012625;28;20454;-74
2022/01/31 08:49:07;;;;;;;2.47;2.27;;;;;;;-0.09;100.00;95343.69;5012676;28;20463;-74
2022/01/31 08:51:34;;;;;;;3.60;3.30;;;;;;;-0.35;100.00;95291.34;5013377;28;20944;-76
2022/01/31 08:54:01;;;;;;;3.50;3.20;;;;;;;-0.49;100.00;95267.16;5013040;28;20483;-74
2022/01/31 08:56:29;;;;;;;3.30;3.00;;;;;;;-0.07;100.00;95320.78;5012513;28;20470;-73
2022/01/31 08:58:56;;;;;;;3.40;3.10;;;;;;;-0.45;100.00;95257.72;5012967;28;20447;-76
2022/01/31 09:01:23;;;;;;;3.83;2.87;;;;;;;-0.22;100.00;95282.84;5014461;28;20459;-73
2022/01/31 09:06:20;;;;;;;4.10;2.60;;;;;;;-0.02;100.00;95318.09;5014242;28;20435;-74
2022/01/31 09:08:47;;;;;;;1.30;1.20;;;;;;;-0.19;100.00;95297.06;5014097;28;20501;-73
2022/01/31 09:11:14;;;;;;;2.60;2.30;;;;;;;-0.15;100.00;95295.44;4996569;28;20494;-76
2022/01/31 09:13:41;;;;;;;3.07;2.83;;;;;;;0.01;100.00;95314.19;5014113;28;20501;-75
2022/01/31 09:16:08;;;;;;;2.30;1.60;;;;;;;-0.45;100.00;95244.75;5012657;28;20521;-75
2022/01/31 09:18:35;;;;;;;2.33;1.83;;;;;;;-0.17;100.00;95285.34;5012714;28;20453;-74
2022/01/31 09:21:04;;;;;;;1.40;1.30;;;;;;;0.01;100.00;95309.75;5013539;28;20486;-75
2022/01/31 09:23:31;;;;;;;1.50;1.40;;;;;;;0.07;100.00;95307.84;5013793;28;20463;-75
2022/01/31 09:25:58;;;;;;;2.20;2.00;;;;;;;-0.15;100.00;95272.84;5013508;28;20470;-74
2022/01/31 09:28:26;;;;;;;2.57;1.63;;;;;;;-0.01;100.00;95285.88;5013870;28;20466;-75
2022/01/31 09:30:53;;;;;;;1.50;1.40;;;;;;;0.25;100.00;95325.97;4997943;28;20443;-74
2022/01/31 09:33:25;;;;;;;2.00;1.50;;;;;;;-0.13;100.00;95254.41;4997592;28;20474;-75
2022/01/31 09:35:52;;;;;;;2.00;1.73;;;;;;;0.15;100.00;95286.41;5012844;28;20458;-74
2022/01/31 09:38:23;;;;;;;3.13;1.87;;;;;;;-0.08;100.00;95278.47;5014124;28;20471;-75
2022/01/31 09:40:54;;;;;;;3.03;1.50;;;;;;;0.18;100.00;95322.22;5012851;28;20462;-75
2022/01/31 09:48:51;;;;;;;2.53;2.33;;;;;;;0.26;100.00;95324.91;4944572;28;21072;-74
2022/01/31 09:51:22;;;;;;;6.20;3.97;;;;;;;0.09;100.00;95290.91;5013552;28;20920;-75
2022/01/31 09:54:01;;;;;;;9.80;7.10;;;;;;;0.41;100.00;95328.34;5014289;28;20486;-74
2022/01/31 09:56:33;;;;;;;6.70;5.10;;;;;;;0.34;100.00;95305.31;5014306;28;20896;-75
2022/01/31 09:59:02;;;;;;;4.30;3.90;;;;;;;0.29;100.00;95298.38;5013745;28;20442;-75
2022/01/31 10:01:29;;;;;;;2.43;2.20;;;;;;;0.41;100.00;95312.75;5013181;28;20431;-74
2022/01/31 10:04:00;;;;;;;3.00;2.67;;;;;;;0.47;100.00;95324.59;5013474;28;20459;-74
2022/01/31 10:06:30;;;;;;;2.53;2.37;;;;;;;0.48;100.00;95321.72;5013979;28;20497;-75
2022/01/31 10:09:03;;;;;;;3.27;2.37;;;;;;;0.52;100.00;95314.88;5013967;28;20516;-74
2022/01/31 10:11:39;;;;;;;2.23;2.13;;;;;;;0.51;100.00;95309.94;5015696;28;20474;-74
2022/01/31 10:17:01;;;;;;;2.53;2.33;;;;;;;0.32;100.00;95286.63;5029487;28;20424;-76
2022/01/31 10:19:48;;;;;;;2.50;2.13;;;;;;;0.48;100.00;95310.53;4998586;28;20470;-75
2022/01/31 10:22:20;;;;;;;2.67;1.60;;;;;;;0.16;100.00;95257.53;5011349;28;20435;-75
2022/01/31 10:24:49;;;;;;;2.93;2.60;;;;;;;0.30;100.00;95262.75;5011626;28;20898;-75
2022/01/31 10:27:23;;;;;;;5.67;3.40;;;;;;;0.52;100.00;95293.28;4995335;28;20447;-74
2022/01/31 10:29:52;;;;;;;3.63;2.67;;;;;;;0.40;100.00;95274.78;5012474;28;20945;-74
2022/01/31 10:32:30;;;;;;;4.37;2.53;;;;;;;0.36;100.00;95271.22;5011106;28;20427;-74
2022/01/31 10:35:00;;;;;;;2.93;2.70;;;;;;;0.55;100.00;95296.13;5012492;28;20557;-75
2022/01/31 10:37:29;;;;;;;3.77;2.93;;;;;;;0.52;100.00;95286.25;5010926;28;20443;-75
2022/01/31 10:45:56;;;;;;;7.30;3.67;;;;;;;0.62;100.00;95294.94;5011733;28;20913;-76
2022/01/31 10:56:49;;;;;;;3.50;3.30;;;;;;;0.50;100.00;95249.38;4976340;28;20471;-76
2022/01/31 10:59:35;;;;;;;3.47;3.17;;;;;;;0.53;100.00;95251.41;5011100;28;20419;-75
2022/01/31 11:02:05;;;;;;;3.10;2.80;;;;;;;0.90;100.00;95280.88;5012745;28;20494;-75
2022/01/31 11:04:38;;;;;;;5.80;4.33;;;;;;;0.60;100.00;95227.63;4995135;28;21022;-75
2022/01/31 11:07:11;;;;;;;3.23;2.43;;;;;;;0.69;100.00;95249.31;5012054;28;20493;-75
2022/01/31 11:09:38;;;;;;;2.50;2.30;;;;;;;0.97;100.00;95281.28;5011869;28;20463;-76
2022/01/31 11:12:06;;;;;;;3.27;2.97;;;;;;;0.85;100.00;95273.97;5010578;28;20835;-77
2022/01/31 11:14:36;;;;;;;2.63;2.30;;;;;;;0.79;100.00;95266.53;5010502;28;20486;-76
2022/01/31 11:17:10;;;;;;;3.33;2.57;;;;;;;0.81;100.00;95270.41;5011305;28;20435;-77
2022/01/31 11:19:39;;;;;;;2.83;2.63;;;;;;;0.37;100.00;95205.97;4995799;28;20423;-76
2022/01/31 11:22:11;;;;;;;2.40;2.20;;;;;;;0.48;100.00;95216.94;4994685;28;20438;-77
2022/01/31 11:24:59;;;;;;;3.00;2.80;;;;;;;0.49;100.00;95211.44;5010717;28;20457;-77
2022/01/31 11:27:29;;;;;;;3.63;2.53;;;;;;;0.88;100.00;95257.00;5010609;28;20510;-75
2022/01/31 11:29:56;;;;;;;3.40;3.10;;;;;;;0.66;100.00;95203.06;4994036;28;20999;-76
2022/01/31 11:32:24;;;;;;;4.37;2.67;;;;;;;1.14;100.00;95258.03;5010460;28;20535;-76
2022/01/31 11:34:52;;;;;;;3.03;2.83;;;;;;;0.96;100.00;95227.69;5011513;28;20473;-76
2022/01/31 11:37:21;;;;;;;4.13;3.63;;;;;;;1.24;100.00;95261.47;5010519;28;20560;-76
2022/01/31 11:39:53;;;;;;;2.73;2.57;;;;;;;1.02;100.00;95220.56;5011900;28;20435;-75
2022/01/31 11:42:20;;;;;;;7.30;2.90;;;;;;;1.28;100.00;95241.59;5011905;28;20836;-75
2022/01/31 11:44:59;;;;;;;4.00;3.20;;;;;;;1.37;100.00;95252.88;5010421;28;20455;-75
2022/01/31 11:47:29;;;;;;;8.23;4.70;;;;;;;1.31;100.00;95241.00;5010430;28;20442;-75
2022/01/31 11:50:02;;;;;;;2.80;2.60;;;;;;;1.09;100.00;95213.91;5010472;28;21025;-75
2022/01/31 11:52:53;;;;;;;5.40;3.43;;;;;;;1.31;100.00;95239.19;5010413;28;20493;-74
2022/01/31 11:55:31;;;;;;;4.20;3.43;;;;;;;1.26;100.00;95233.31;5010315;28;20515;-75
2022/01/31 11:57:59;;;;;;;1.83;1.60;;;;;;;1.17;100.00;95230.63;5012503;28;20427;-74
2022/01/31 12:00:28;;;;;;;2.20;2.10;;;;;;;0.99;100.00;95221.91;4997934;28;21025;-74
2022/01/31 12:03:09;;;;;;;3.50;2.60;;;;;;;1.06;100.00;95250.88;5014083;28;20447;-74
2022/01/31 12:05:37;;;;;;;3.43;3.13;;;;;;;0.76;100.00;95196.88;4997782;28;20438;-75
2022/01/31 12:08:19;;;;;;;7.23;3.23;;;;;;;0.90;100.00;95218.44;5014114;28;20470;-76